Time;durP1;ratioP1;P1;durP2;ratioP2;P2;SDS_P1;SDS_P2;PMS_P1;PMS_P2;Temp;Humidity;BMP_temperature;BMP_pressure;BME280_temperature;BME280_humidity;BME280_pressure;Samples;Min_cycle;Max_cycle;Signal;HPM_P1;HPM_P2
2023/09/24 00:02:11;;;;;;;5.50;4.00;;;;;;;14.28;92.75;101043.65;105778;1264;97866;-84
2023/09/24 00:04:58;;;;;;;3.70;3.10;;;;;;;14.23;92.92;101053.05;105720;1264;101355;-84
2023/09/24 00:07:43;;;;;;;5.10;3.50;;;;;;;14.23;93.16;101057.24;105950;1260;99223;-84
2023/09/24 00:10:30;;;;;;;4.70;2.90;;;;;;;14.23;93.06;101051.07;105844;1261;99055;-83
2023/09/24 00:13:17;;;;;;;4.30;3.50;;;;;;;14.23;93.05;101049.58;105725;1264;97922;-84
2023/09/24 00:16:06;;;;;;;4.50;3.50;;;;;;;14.23;92.85;101052.67;105910;1260;96819;-84
2023/09/24 00:18:51;;;;;;;4.00;3.20;;;;;;;14.22;93.04;101058.81;105743;1259;101893;-85
2023/09/24 00:21:37;;;;;;;3.40;3.00;;;;;;;14.20;93.23;101057.94;105677;1260;100467;-84
2023/09/24 00:24:22;;;;;;;6.40;3.10;;;;;;;14.20;93.19;101052.71;105959;1264;97842;-85
2023/09/24 00:27:09;;;;;;;4.30;3.60;;;;;;;14.21;93.16;101052.63;105902;1260;97788;-85
2023/09/24 00:29:55;;;;;;;4.70;3.20;;;;;;;14.21;93.29;101046.70;105893;1260;97957;-85
2023/09/24 00:32:40;;;;;;;3.60;3.30;;;;;;;14.20;92.87;101042.76;105883;1267;101438;-85
2023/09/24 00:35:26;;;;;;;6.10;3.60;;;;;;;14.18;92.82;101043.70;105847;1264;99205;-86
2023/09/24 00:38:12;;;;;;;4.70;3.50;;;;;;;14.16;93.02;101048.09;105699;1260;97898;-85
2023/09/24 00:40:58;;;;;;;4.90;3.70;;;;;;;14.15;93.24;101054.26;105824;1260;98019;-85
2023/09/24 00:43:44;;;;;;;5.30;3.50;;;;;;;14.13;93.14;101057.60;105848;1262;98422;-84
2023/09/24 00:46:30;;;;;;;5.20;3.60;;;;;;;14.08;93.20;101056.63;105800;1260;102252;-84
2023/09/24 00:49:16;;;;;;;5.80;3.90;;;;;;;14.05;93.52;101056.69;105860;1261;100471;-84
2023/09/24 00:52:03;;;;;;;6.00;3.60;;;;;;;14.05;93.59;101060.09;105927;1264;98008;-85
2023/09/24 00:54:48;;;;;;;6.60;3.50;;;;;;;14.04;93.58;101062.23;105687;1260;97926;-85
2023/09/24 00:57:35;;;;;;;5.40;3.20;;;;;;;14.01;93.61;101056.00;105912;1260;97905;-84
2023/09/24 01:00:25;;;;;;;6.10;3.70;;;;;;;14.01;93.89;101062.88;105863;1260;102318;-85
2023/09/24 01:03:11;;;;;;;6.10;3.30;;;;;;;14.01;93.98;101064.78;105954;1260;100300;-85
2023/09/24 01:05:58;;;;;;;7.10;4.20;;;;;;;14.00;93.75;101066.69;105681;1260;97988;-85
2023/09/24 01:08:44;;;;;;;7.00;3.70;;;;;;;13.98;93.79;101065.71;105831;1260;97961;-84
2023/09/24 01:11:33;;;;;;;6.90;4.00;;;;;;;13.97;93.60;101063.73;105830;1261;98368;-83
2023/09/24 01:14:19;;;;;;;4.60;3.30;;;;;;;13.94;93.94;101065.65;105899;1260;102330;-83
2023/09/24 01:17:05;;;;;;;5.60;3.50;;;;;;;13.92;93.92;101068.08;105843;1260;100300;-83
2023/09/24 01:19:55;;;;;;;4.90;4.10;;;;;;;13.90;93.91;101062.56;105892;1261;98526;-85
2023/09/24 01:22:40;;;;;;;5.10;3.70;;;;;;;13.90;94.23;101067.98;106004;1260;97880;-85
2023/09/24 01:25:26;;;;;;;4.50;3.80;;;;;;;13.90;94.02;101070.30;105840;1261;98426;-85
2023/09/24 01:28:12;;;;;;;6.40;3.70;;;;;;;13.89;93.97;101073.41;105712;1267;101418;-85
2023/09/24 01:30:58;;;;;;;6.80;3.60;;;;;;;13.88;94.15;101075.71;105757;1261;99165;-85
2023/09/24 01:33:44;;;;;;;3.60;3.30;;;;;;;13.88;94.28;101076.09;105756;1264;98028;-84
2023/09/24 01:36:30;;;;;;;5.10;3.30;;;;;;;13.87;94.12;101073.31;105644;1261;98053;-85
2023/09/24 01:39:17;;;;;;;7.50;3.90;;;;;;;13.86;94.23;101076.73;105722;1264;98007;-85
2023/09/24 01:42:03;;;;;;;4.70;3.40;;;;;;;13.84;94.16;101075.48;105745;1261;101423;-84
2023/09/24 01:44:50;;;;;;;4.10;3.30;;;;;;;13.81;94.08;101083.08;105714;1262;99313;-85
2023/09/24 01:47:37;;;;;;;4.30;3.70;;;;;;;13.80;94.28;101086.89;105731;1260;97914;-84
2023/09/24 01:50:29;;;;;;;5.90;3.80;;;;;;;13.79;94.41;101088.79;105771;1260;98564;-84
2023/09/24 01:53:16;;;;;;;4.10;3.60;;;;;;;13.78;94.16;101085.17;105781;1264;98067;-85
2023/09/24 01:56:04;;;;;;;5.60;3.50;;;;;;;13.76;94.38;101080.27;105819;1264;101454;-84
2023/09/24 01:58:51;;;;;;;4.80;3.50;;;;;;;13.73;94.20;101078.02;106173;1261;99140;-84
2023/09/24 02:01:37;;;;;;;4.00;3.30;;;;;;;13.70;93.99;101083.62;105702;1260;98660;-83
2023/09/24 02:04:23;;;;;;;7.30;3.70;;;;;;;13.68;94.31;101090.77;105877;1265;99166;-84
2023/09/24 02:07:11;;;;;;;6.20;3.70;;;;;;;13.67;94.33;101096.94;105926;1260;98389;-85
2023/09/24 02:09:57;;;;;;;5.80;3.40;;;;;;;13.66;94.34;101098.58;105757;1262;101484;-84
2023/09/24 02:12:45;;;;;;;4.80;3.30;;;;;;;13.64;94.56;101100.21;105766;1261;99143;-84
2023/09/24 02:15:31;;;;;;;4.60;4.20;;;;;;;13.61;94.36;101097.21;105720;1260;98041;-84
2023/09/24 02:18:17;;;;;;;4.90;3.80;;;;;;;13.60;94.64;101102.05;105897;1266;97888;-84
2023/09/24 02:21:13;;;;;;;5.00;3.80;;;;;;;13.57;94.60;101101.28;105843;1264;97882;-85
2023/09/24 02:23:59;;;;;;;4.90;3.70;;;;;;;13.55;94.79;101104.52;105818;1262;102751;-84
2023/09/24 02:26:45;;;;;;;4.60;3.80;;;;;;;13.53;94.68;101109.15;105684;1261;99934;-85
2023/09/24 02:29:31;;;;;;;5.20;3.80;;;;;;;13.52;94.89;101117.27;105721;1261;98540;-83
2023/09/24 02:32:17;;;;;;;7.40;3.90;;;;;;;13.51;95.17;101126.20;105560;1267;98549;-84
2023/09/24 02:35:02;;;;;;;7.50;4.10;;;;;;;13.51;95.48;101132.36;105671;1264;98402;-84
2023/09/24 02:37:50;;;;;;;5.70;4.40;;;;;;;13.49;95.38;101133.05;105825;1264;101388;-83
2023/09/24 02:40:36;;;;;;;5.40;4.40;;;;;;;13.49;95.40;101141.16;105697;1262;99949;-84
2023/09/24 02:43:23;;;;;;;6.70;4.00;;;;;;;13.48;95.65;101145.21;105738;1261;97935;-83
2023/09/24 02:46:11;;;;;;;6.30;4.60;;;;;;;13.48;95.63;101143.55;106422;1264;99237;-84
2023/09/24 02:48:57;;;;;;;5.30;3.90;;;;;;;13.49;95.72;101146.88;105754;1261;98532;-84
2023/09/24 02:51:43;;;;;;;6.70;4.10;;;;;;;13.48;95.51;101147.82;105767;1262;102568;-84
2023/09/24 02:54:29;;;;;;;6.90;3.90;;;;;;;13.47;95.63;101150.86;105983;1259;100556;-85
2023/09/24 02:57:15;;;;;;;6.60;4.30;;;;;;;13.46;95.97;101155.16;105736;1266;97974;-84
2023/09/24 03:00:00;;;;;;;7.40;4.20;;;;;;;13.44;95.81;101156.60;105700;1260;95970;-83
2023/09/24 03:02:49;;;;;;;5.50;4.30;;;;;;;13.44;95.66;101157.59;105865;1260;97888;-84
2023/09/24 03:05:38;;;;;;;4.40;4.00;;;;;;;13.42;95.55;101164.03;105810;1262;101301;-85
2023/09/24 03:08:24;;;;;;;5.20;4.10;;;;;;;13.40;95.61;101167.86;105891;1260;99145;-85
2023/09/24 03:11:15;;;;;;;7.50;3.90;;;;;;;13.38;95.85;101167.82;105625;1264;97923;-84
2023/09/24 03:14:01;;;;;;;4.80;3.90;;;;;;;13.36;96.02;101175.46;105629;1262;98068;-84
2023/09/24 03:16:46;;;;;;;5.90;4.70;;;;;;;13.34;96.14;101184.52;105862;1262;98424;-84
2023/09/24 03:19:31;;;;;;;4.30;3.80;;;;;;;13.31;96.16;101195.27;105754;1262;102222;-84
2023/09/24 03:22:17;;;;;;;7.80;4.20;;;;;;;13.26;96.18;101203.80;105856;1263;99183;-84
2023/09/24 03:25:03;;;;;;;6.30;5.00;;;;;;;13.22;96.21;101205.77;105850;1262;99029;-84
2023/09/24 03:27:51;;;;;;;6.60;5.00;;;;;;;13.19;96.64;101214.17;105758;1261;98000;-84
2023/09/24 03:30:36;;;;;;;4.80;4.30;;;;;;;13.16;96.81;101223.13;105757;1262;97982;-84
2023/09/24 03:33:22;;;;;;;5.00;4.40;;;;;;;13.16;96.75;101229.05;105951;1267;102722;-83
2023/09/24 03:36:08;;;;;;;5.60;4.30;;;;;;;13.15;97.05;101226.11;105762;1261;100234;-84
2023/09/24 03:38:55;;;;;;;5.30;4.50;;;;;;;13.17;97.38;101226.81;105887;1262;98582;-85
2023/09/24 03:41:41;;;;;;;6.00;4.80;;;;;;;13.17;97.42;101229.06;105691;1261;98851;-85
2023/09/24 03:44:27;;;;;;;8.90;5.10;;;;;;;13.17;97.44;101221.37;105821;1265;98804;-86
2023/09/24 03:47:14;;;;;;;7.10;5.20;;;;;;;13.16;97.38;101221.64;105931;1261;101442;-84
2023/09/24 03:50:00;;;;;;;5.00;4.20;;;;;;;13.15;97.43;101228.05;105840;1260;100081;-86
2023/09/24 03:52:50;;;;;;;6.80;4.40;;;;;;;13.12;97.46;101229.30;105863;1267;99092;-85
2023/09/24 03:55:37;;;;;;;5.80;4.30;;;;;;;13.08;97.53;101223.53;105940;1262;97894;-86
2023/09/24 03:58:23;;;;;;;5.10;4.40;;;;;;;13.06;97.39;101223.39;105974;1261;99132;-84
2023/09/24 04:01:10;;;;;;;8.90;4.70;;;;;;;13.06;97.56;101227.92;106025;1260;102288;-84
2023/09/24 04:03:56;;;;;;;8.30;4.60;;;;;;;13.05;97.56;101235.23;105967;1264;100678;-84
2023/09/24 04:06:41;;;;;;;5.80;4.70;;;;;;;13.04;97.67;101242.46;105832;1261;97912;-84
2023/09/24 04:09:30;;;;;;;5.10;4.20;;;;;;;13.04;97.91;101243.94;105768;1268;97885;-85
2023/09/24 04:12:16;;;;;;;5.20;4.00;;;;;;;13.04;97.84;101243.94;105829;1260;98505;-84
2023/09/24 04:15:03;;;;;;;4.90;3.70;;;;;;;13.02;97.78;101241.13;105695;1264;101460;-83
2023/09/24 04:17:49;;;;;;;4.80;4.00;;;;;;;13.00;97.57;101243.55;105798;1264;100450;-83
2023/09/24 04:20:35;;;;;;;4.10;3.70;;;;;;;12.98;97.74;101242.48;105649;1262;98619;-84
2023/09/24 04:23:20;;;;;;;5.60;4.40;;;;;;;12.96;97.79;101248.16;105679;1261;98463;-85
2023/09/24 04:26:06;;;;;;;5.80;4.00;;;;;;;12.95;97.92;101254.05;105773;1260;98426;-83
2023/09/24 04:28:54;;;;;;;4.70;3.90;;;;;;;12.94;98.21;101265.72;105788;1262;101396;-84
2023/09/24 04:31:39;;;;;;;6.70;4.50;;;;;;;12.95;98.38;101265.15;105680;1264;99177;-83
2023/09/24 04:34:25;;;;;;;5.40;4.50;;;;;;;12.95;98.39;101262.55;105702;1260;98578;-85
2023/09/24 04:37:11;;;;;;;6.80;4.10;;;;;;;12.95;98.38;101263.26;105762;1261;97962;-84
2023/09/24 04:39:58;;;;;;;6.10;4.60;;;;;;;12.96;98.42;101265.73;105740;1264;97939;-84
2023/09/24 04:42:48;;;;;;;8.80;4.40;;;;;;;12.96;98.71;101270.77;105696;1262;102016;-83
2023/09/24 04:45:35;;;;;;;6.60;4.20;;;;;;;12.97;98.53;101269.40;105680;1262;99152;-83
2023/09/24 04:48:21;;;;;;;6.90;4.70;;;;;;;12.97;98.77;101263.98;105528;1264;98933;-84
2023/09/24 04:51:07;;;;;;;8.30;4.60;;;;;;;12.97;98.91;101261.30;105695;1264;98061;-84
2023/09/24 04:53:53;;;;;;;6.80;4.00;;;;;;;12.95;98.63;101270.29;105785;1261;98050;-84
2023/09/24 04:56:39;;;;;;;7.80;4.30;;;;;;;12.95;98.75;101271.44;105779;1260;102393;-83
2023/09/24 04:59:25;;;;;;;6.10;4.10;;;;;;;12.95;98.98;101276.07;105729;1261;99141;-83
2023/09/24 05:02:10;;;;;;;7.50;4.60;;;;;;;12.96;99.00;101287.91;105689;1264;98956;-84
2023/09/24 05:04:56;;;;;;;8.90;5.00;;;;;;;12.97;99.05;101286.87;105720;1262;97992;-84
2023/09/24 05:07:42;;;;;;;11.10;4.50;;;;;;;12.98;98.86;101285.89;105841;1267;97973;-83
2023/09/24 05:10:27;;;;;;;9.10;4.60;;;;;;;13.00;99.14;101288.73;105853;1261;102710;-88
2023/09/24 05:13:14;;;;;;;6.50;5.30;;;;;;;13.02;99.17;101292.09;105743;1261;99464;-83
2023/09/24 05:16:01;;;;;;;5.70;5.10;;;;;;;13.03;99.26;101296.83;105768;1264;98496;-85
2023/09/24 05:18:46;;;;;;;7.40;5.40;;;;;;;13.03;99.42;101309.66;105946;1262;98054;-84
2023/09/24 05:21:32;;;;;;;5.90;5.30;;;;;;;13.02;99.65;101319.12;105801;1260;98448;-84
2023/09/24 05:24:18;;;;;;;8.60;5.60;;;;;;;13.03;99.68;101325.66;105816;1262;101399;-84
2023/09/24 05:27:03;;;;;;;7.60;5.20;;;;;;;13.04;99.91;101332.52;105762;1262;100469;-85
2023/09/24 05:29:50;;;;;;;6.10;4.90;;;;;;;13.06;99.96;101338.03;105679;1266;97983;-84
2023/09/24 05:32:36;;;;;;;6.60;5.60;;;;;;;13.06;100.00;101339.95;105769;1262;97889;-85
2023/09/24 05:35:23;;;;;;;6.20;5.30;;;;;;;13.09;100.00;101342.17;105765;1262;99668;-85
2023/09/24 05:38:08;;;;;;;5.70;5.10;;;;;;;13.13;100.00;101342.05;105707;1267;102587;-85
2023/09/24 05:40:55;;;;;;;6.70;5.10;;;;;;;13.14;100.00;101350.45;105662;1262;99338;-84
2023/09/24 05:43:44;;;;;;;5.80;5.10;;;;;;;13.16;100.00;101355.77;105847;1262;98007;-84
2023/09/24 05:46:30;;;;;;;8.00;5.30;;;;;;;13.19;100.00;101358.95;105730;1266;97982;-85
2023/09/24 05:49:16;;;;;;;9.30;5.60;;;;;;;13.21;100.00;101365.52;105849;1262;98497;-85
2023/09/24 05:52:03;;;;;;;8.10;5.40;;;;;;;13.22;100.00;101370.95;105931;1264;102422;-85
2023/09/24 05:54:48;;;;;;;5.80;5.20;;;;;;;13.24;100.00;101375.30;105836;1262;99174;-85
2023/09/24 05:57:34;;;;;;;9.10;6.00;;;;;;;13.24;100.00;101372.83;105779;1262;98000;-84
2023/09/24 06:00:20;;;;;;;7.10;5.80;;;;;;;13.26;100.00;101365.18;105794;1261;97880;-85
2023/09/24 06:03:06;;;;;;;6.00;5.20;;;;;;;13.28;100.00;101367.08;105862;1264;96669;-84
2023/09/24 06:05:51;;;;;;;8.40;5.80;;;;;;;13.30;100.00;101370.05;105729;1264;102256;-85
2023/09/24 06:08:38;;;;;;;7.60;5.60;;;;;;;13.32;100.00;101374.50;105854;1262;99191;-84
2023/09/24 06:11:24;;;;;;;6.90;5.50;;;;;;;13.32;100.00;101383.36;105616;1267;99129;-83
2023/09/24 06:14:10;;;;;;;9.30;6.90;;;;;;;13.32;100.00;101391.89;105815;1262;97959;-83
2023/09/24 06:16:56;;;;;;;6.50;5.60;;;;;;;13.31;100.00;101392.91;105703;1264;97704;-84
2023/09/24 06:19:41;;;;;;;5.90;5.20;;;;;;;13.29;100.00;101392.59;105908;1264;102576;-85
2023/09/24 06:22:27;;;;;;;8.70;5.80;;;;;;;13.29;100.00;101397.27;105793;1262;100813;-86
2023/09/24 06:25:13;;;;;;;11.00;6.40;;;;;;;13.32;100.00;101401.44;105694;1261;100004;-85
2023/09/24 06:27:59;;;;;;;7.30;5.80;;;;;;;13.35;100.00;101401.73;105658;1260;98067;-84
2023/09/24 06:30:45;;;;;;;8.90;5.70;;;;;;;13.37;100.00;101399.87;105754;1260;98575;-84
2023/09/24 06:33:31;;;;;;;6.40;5.60;;;;;;;13.41;100.00;101403.94;105761;1264;102781;-85
2023/09/24 06:36:17;;;;;;;8.00;6.00;;;;;;;13.44;100.00;101409.65;105762;1264;99188;-83
2023/09/24 06:39:08;;;;;;;5.80;5.10;;;;;;;13.46;100.00;101412.08;105788;1262;99048;-84
2023/09/24 06:41:54;;;;;;;7.70;5.50;;;;;;;13.51;100.00;101419.65;105735;1260;97958;-84
2023/09/24 06:44:39;;;;;;;8.80;6.60;;;;;;;13.56;100.00;101427.47;105748;1264;98394;-84
2023/09/24 06:47:25;;;;;;;9.20;6.10;;;;;;;13.61;100.00;101432.10;105653;1264;147531;-85
2023/09/24 06:50:11;;;;;;;11.20;6.10;;;;;;;13.68;100.00;101431.80;105731;1260;99219;-85
2023/09/24 06:52:57;;;;;;;10.90;6.10;;;;;;;13.72;100.00;101430.84;105770;1260;99101;-83
2023/09/24 06:55:43;;;;;;;7.90;6.10;;;;;;;13.75;100.00;101434.68;106822;1264;97899;-91
2023/09/24 06:58:28;;;;;;;9.60;6.00;;;;;;;13.78;100.00;101437.67;107934;1262;95607;-87
2023/09/24 07:01:14;;;;;;;7.40;6.20;;;;;;;13.85;100.00;101440.48;107773;1262;102525;-87
2023/09/24 07:04:04;;;;;;;7.00;5.60;;;;;;;13.91;100.00;101443.61;108085;1262;99815;-88
2023/09/24 07:06:51;;;;;;;7.60;5.60;;;;;;;13.96;100.00;101448.46;107933;1261;98437;-87
2023/09/24 07:09:37;;;;;;;9.90;6.40;;;;;;;14.00;100.00;101454.36;107470;1260;97888;-90
2023/09/24 07:12:24;;;;;;;8.90;5.50;;;;;;;14.05;100.00;101458.47;106522;1264;98780;-87
2023/09/24 07:15:10;;;;;;;8.00;5.90;;;;;;;14.13;100.00;101461.53;106720;1262;102523;-89
2023/09/24 07:17:56;;;;;;;10.40;5.40;;;;;;;14.22;100.00;101460.94;106461;1264;99179;-89
2023/09/24 07:20:49;;;;;;;6.20;5.40;;;;;;;14.29;100.00;101462.23;106210;1262;98663;-89
2023/09/24 07:23:35;;;;;;;6.90;5.40;;;;;;;14.36;100.00;101465.77;106640;1267;97958;-90
2023/09/24 07:26:25;;;;;;;7.00;5.30;;;;;;;14.43;100.00;101468.75;106412;1264;98474;-85
2023/09/24 07:29:11;;;;;;;5.90;5.00;;;;;;;14.50;100.00;101470.20;106241;1262;103571;-85
2023/09/24 07:31:57;;;;;;;7.00;5.00;;;;;;;14.59;100.00;101473.06;105768;1261;100455;-84
2023/09/24 07:34:46;;;;;;;5.70;4.70;;;;;;;14.67;100.00;101470.95;105953;1262;106333;-84
2023/09/24 07:37:33;;;;;;;6.60;4.70;;;;;;;14.72;100.00;101471.91;105886;1267;98141;-85
2023/09/24 07:40:20;;;;;;;7.10;4.80;;;;;;;14.79;100.00;101473.36;106042;1261;98888;-85
2023/09/24 07:43:09;;;;;;;5.70;5.00;;;;;;;14.87;100.00;101480.58;105794;1261;102117;-85
2023/09/24 07:45:55;;;;;;;9.40;5.80;;;;;;;14.99;100.00;101475.48;105742;1267;100522;-82
2023/09/24 07:48:47;;;;;;;6.40;4.40;;;;;;;15.08;100.00;101474.53;106055;1264;98052;-88
2023/09/24 07:51:33;;;;;;;5.40;4.10;;;;;;;15.09;100.00;101481.77;106201;1267;98039;-89
2023/09/24 07:54:33;;;;;;;6.80;3.90;;;;;;;15.10;100.00;101485.80;106532;1266;98495;-91
2023/09/24 07:57:19;;;;;;;9.60;4.30;;;;;;;15.14;100.00;101484.58;106438;1261;102571;-90
2023/09/24 08:00:09;;;;;;;4.00;3.70;;;;;;;15.16;100.00;101483.23;106063;1264;99166;-87
2023/09/24 08:02:58;;;;;;;4.60;3.50;;;;;;;15.21;100.00;101485.73;105843;1264;98095;-87
2023/09/24 08:05:43;;;;;;;6.60;4.20;;;;;;;15.29;99.92;101487.63;106147;1266;97965;-88
2023/09/24 08:08:30;;;;;;;6.90;3.80;;;;;;;15.36;99.97;101492.16;106294;1260;98062;-87
2023/09/24 08:11:16;;;;;;;10.20;3.80;;;;;;;15.42;99.93;101497.13;106379;1262;101536;-87
2023/09/24 08:14:02;;;;;;;4.50;3.40;;;;;;;15.50;99.71;101494.88;106161;1262;109106;-89
2023/09/24 08:16:51;;;;;;;4.00;3.60;;;;;;;15.60;99.92;101498.83;106053;1264;97898;-84
2023/09/24 08:19:36;;;;;;;6.10;4.10;;;;;;;15.72;99.95;101505.45;105762;1266;97901;-84
2023/09/24 08:22:23;;;;;;;5.00;3.20;;;;;;;15.80;99.53;101501.21;105655;1266;97966;-83
2023/09/24 08:25:08;;;;;;;6.40;3.50;;;;;;;15.88;99.58;101502.21;105677;1261;101424;-84
2023/09/24 08:27:54;;;;;;;6.40;2.90;;;;;;;15.96;99.35;101510.87;105564;1264;100171;-80
2023/09/24 08:30:40;;;;;;;3.30;3.00;;;;;;;16.02;98.33;101517.23;106041;1260;98946;-84
2023/09/24 08:33:26;;;;;;;3.40;3.10;;;;;;;16.08;98.06;101517.45;106537;1263;97941;-87
2023/09/24 08:36:12;;;;;;;3.70;2.80;;;;;;;16.12;97.79;101513.95;106068;1267;96875;-85
2023/09/24 08:38:58;;;;;;;7.90;3.00;;;;;;;16.17;97.74;101511.95;105931;1264;102453;-86
2023/09/24 08:41:45;;;;;;;2.50;2.30;;;;;;;16.16;96.63;101515.67;106170;1266;100479;-82
2023/09/24 08:44:31;;;;;;;3.80;2.70;;;;;;;16.13;96.53;101516.56;105908;1264;98819;-83
2023/09/24 08:47:19;;;;;;;2.70;2.30;;;;;;;16.12;95.91;101520.30;106315;1262;97869;-88
2023/09/24 08:50:06;;;;;;;2.80;2.20;;;;;;;16.15;95.96;101524.77;106143;1265;98423;-82
2023/09/24 08:52:53;;;;;;;4.40;2.40;;;;;;;16.19;96.12;101527.91;106343;1262;102773;-82
2023/09/24 08:55:43;;;;;;;5.50;2.80;;;;;;;16.27;96.67;101530.11;106047;1267;100275;-82
2023/09/24 08:58:29;;;;;;;5.60;2.60;;;;;;;16.37;96.68;101528.98;105968;1264;97979;-82
2023/09/24 09:01:14;;;;;;;3.40;2.70;;;;;;;16.45;96.38;101529.68;105912;1262;97971;-81
2023/09/24 09:04:00;;;;;;;7.40;2.70;;;;;;;16.51;96.24;101531.98;106022;1264;97754;-81
2023/09/24 09:06:46;;;;;;;3.50;2.40;;;;;;;16.59;96.48;101533.77;106212;1260;102797;-87
2023/09/24 09:09:32;;;;;;;3.00;2.30;;;;;;;16.66;95.99;101531.38;106334;1259;99178;-83
2023/09/24 09:12:19;;;;;;;3.70;2.70;;;;;;;16.76;96.15;101527.37;105790;1264;98707;-83
2023/09/24 09:15:16;;;;;;;5.60;2.60;;;;;;;16.86;95.84;101525.43;105651;1266;97995;-82
2023/09/24 09:18:02;;;;;;;4.00;2.40;;;;;;;16.93;95.72;101524.56;105870;1261;98442;-82
2023/09/24 09:20:50;;;;;;;2.60;2.10;;;;;;;16.98;94.96;101528.11;106305;1264;102362;-86
2023/09/24 09:23:40;;;;;;;3.50;2.40;;;;;;;17.03;95.04;101528.37;105843;1261;99165;-85
2023/09/24 09:26:33;;;;;;;3.60;1.80;;;;;;;17.10;94.61;101535.41;106483;1260;97729;-84
2023/09/24 09:29:23;;;;;;;5.60;1.60;;;;;;;17.10;93.23;101538.20;105733;1262;98117;-85
2023/09/24 09:32:09;;;;;;;2.50;1.50;;;;;;;17.14;93.17;101539.34;105789;1265;98069;-84
2023/09/24 09:34:54;;;;;;;3.50;1.80;;;;;;;17.16;92.57;101539.59;105876;1264;101814;-83
2023/09/24 09:37:42;;;;;;;4.10;1.90;;;;;;;17.21;92.86;101542.67;105720;1262;99087;-82
2023/09/24 09:40:28;;;;;;;2.70;2.00;;;;;;;17.27;93.19;101545.39;105833;1265;98489;-83
2023/09/24 09:43:17;;;;;;;3.20;1.80;;;;;;;17.34;92.33;101547.71;105764;1266;97971;-83
2023/09/24 09:46:04;;;;;;;3.10;1.90;;;;;;;17.40;92.48;101549.10;105746;1275;98962;-82
2023/09/24 09:49:07;;;;;;;4.10;1.70;;;;;;;17.46;92.32;101555.31;106477;1264;101432;-82
2023/09/24 09:51:57;;;;;;;3.50;1.70;;;;;;;17.54;91.41;101555.84;105908;1263;99182;-83
2023/09/24 09:54:46;;;;;;;4.30;2.30;;;;;;;17.59;90.74;101558.59;105706;1261;99231;-84
2023/09/24 09:57:33;;;;;;;2.80;1.80;;;;;;;17.66;90.72;101562.23;105591;1265;99276;-83
2023/09/24 10:00:19;;;;;;;4.20;1.70;;;;;;;17.72;89.68;101567.04;105754;1265;97961;-84
2023/09/24 10:03:06;;;;;;;3.30;1.70;;;;;;;17.76;89.34;101576.50;105812;1264;101483;-84
2023/09/24 10:05:54;;;;;;;3.20;2.10;;;;;;;17.84;89.51;101580.33;105812;1266;99181;-85
2023/09/24 10:08:47;;;;;;;2.80;1.80;;;;;;;17.93;89.81;101577.73;105620;1265;99517;-84
2023/09/24 10:11:41;;;;;;;2.70;1.90;;;;;;;18.00;89.49;101580.17;106087;1262;98072;-93
2023/09/24 10:14:56;;;;;;;3.20;1.70;;;;;;;18.09;89.72;101582.08;106611;1267;98384;-92
2023/09/24 10:17:45;;;;;;;5.40;1.90;;;;;;;18.20;88.73;101583.06;106115;1265;101820;-89
2023/09/24 10:24:35;;;;;;;4.60;3.20;;;;;;;18.24;87.66;101587.80;106610;1264;99235;-91
2023/09/24 10:27:30;;;;;;;4.30;2.10;;;;;;;18.24;86.73;101592.09;106677;1260;98014;-91
2023/09/24 10:30:16;;;;;;;4.30;2.20;;;;;;;18.23;87.05;101592.18;106236;1267;98404;-86
2023/09/24 10:33:02;;;;;;;3.50;2.50;;;;;;;18.25;86.99;101596.68;105650;1264;101367;-83
2023/09/24 10:36:26;;;;;;;3.70;2.40;;;;;;;18.29;85.99;101601.97;105775;1263;99844;-83
2023/09/24 10:39:13;;;;;;;5.20;2.40;;;;;;;18.30;86.20;101597.80;105760;1261;100108;-84
2023/09/24 10:42:14;;;;;;;4.90;2.10;;;;;;;18.34;86.00;101604.09;105847;1263;98050;-90
2023/09/24 10:45:06;;;;;;;3.60;2.40;;;;;;;18.40;86.17;101605.66;106136;1261;97952;-90
2023/09/24 10:47:52;;;;;;;5.70;2.30;;;;;;;18.46;86.19;101607.88;105925;1262;102676;-86
2023/09/24 10:50:41;;;;;;;2.60;2.10;;;;;;;18.45;85.13;101606.77;106314;1261;99368;-93
2023/09/24 10:53:27;;;;;;;5.50;2.40;;;;;;;18.47;85.10;101600.88;105781;1260;97983;-87
2023/09/24 10:56:13;;;;;;;3.60;2.00;;;;;;;18.53;85.42;101598.59;105839;1266;98109;-90
2023/09/24 10:58:59;;;;;;;3.60;1.60;;;;;;;18.64;85.44;101600.30;106060;1270;98488;-86
2023/09/24 11:01:45;;;;;;;3.00;1.90;;;;;;;18.71;84.39;101601.98;106057;1261;102681;-87
2023/09/24 11:04:31;;;;;;;3.90;1.40;;;;;;;18.76;84.51;101599.98;105893;1263;99160;-86
2023/09/24 11:07:16;;;;;;;3.10;1.60;;;;;;;18.81;84.76;101599.89;105995;1262;98036;-82
2023/09/24 11:10:02;;;;;;;4.80;1.80;;;;;;;18.87;83.86;101597.35;105818;1266;97945;-81
2023/09/24 11:13:00;;;;;;;2.40;1.20;;;;;;;18.88;82.68;101592.29;106050;1264;98373;-81
2023/09/24 11:15:46;;;;;;;2.10;1.00;;;;;;;18.82;81.23;101590.27;105909;1260;102710;-81
2023/09/24 11:18:32;;;;;;;1.40;0.90;;;;;;;18.77;80.69;101587.16;106344;1263;99250;-89
2023/09/24 11:21:17;;;;;;;1.90;1.20;;;;;;;18.73;80.37;101591.70;105632;1267;99141;-82
2023/09/24 11:24:22;;;;;;;2.30;1.10;;;;;;;18.75;80.39;101590.23;105624;1267;98462;-86
2023/09/24 11:27:08;;;;;;;2.30;0.80;;;;;;;18.83;81.19;101592.33;105982;1265;97863;-88
2023/09/24 11:30:02;;;;;;;1.90;1.00;;;;;;;18.94;80.23;101592.67;105976;1266;101424;-86
2023/09/24 11:32:54;;;;;;;4.40;1.10;;;;;;;19.09;80.43;101588.38;106028;1260;108647;-88
2023/09/24 11:35:58;;;;;;;1.60;1.10;;;;;;;19.18;79.42;101584.84;106379;1261;97896;-93
2023/09/24 11:39:00;;;;;;;1.70;0.80;;;;;;;19.27;78.77;101587.13;106710;1262;98080;-91
2023/09/24 11:41:46;;;;;;;2.80;0.90;;;;;;;19.31;78.37;101587.39;106715;1261;97872;-90
2023/09/24 11:44:45;;;;;;;3.40;1.40;;;;;;;19.31;78.24;101589.98;106563;1260;102527;-90
2023/09/24 11:47:31;;;;;;;2.10;1.00;;;;;;;19.17;77.40;101591.52;106124;1260;100975;-86
2023/09/24 11:50:17;;;;;;;1.70;0.90;;;;;;;19.06;77.32;101592.77;106039;1263;99073;-89
2023/09/24 11:53:03;;;;;;;1.50;0.70;;;;;;;19.04;77.31;101592.28;106365;1264;98682;-87
2023/09/24 11:56:01;;;;;;;2.40;0.80;;;;;;;19.11;77.12;101587.18;106407;1259;98390;-89
2023/09/24 11:58:47;;;;;;;0.80;0.60;;;;;;;19.19;76.53;101585.03;105964;1263;102768;-88
2023/09/24 12:01:39;;;;;;;1.10;0.70;;;;;;;19.30;76.23;101586.80;106721;1259;99166;-93
2023/09/24 12:04:25;;;;;;;4.30;0.70;;;;;;;19.40;75.55;101587.59;106334;1263;97831;-86
2023/09/24 12:07:11;;;;;;;1.40;0.90;;;;;;;19.48;75.41;101587.73;106113;1259;98034;-86
2023/09/24 12:09:57;;;;;;;1.70;0.90;;;;;;;19.58;74.70;101585.63;106039;1260;98125;-85
2023/09/24 12:12:43;;;;;;;3.10;0.80;;;;;;;19.60;73.16;101589.23;106079;1259;101456;-94
2023/09/24 12:15:31;;;;;;;1.70;0.80;;;;;;;19.53;72.58;101588.34;105944;1264;100447;-85
2023/09/24 12:18:17;;;;;;;6.00;1.00;;;;;;;19.42;72.58;101590.52;105992;1264;98388;-83
2023/09/24 12:21:02;;;;;;;1.70;0.80;;;;;;;19.33;72.90;101588.55;106004;1264;98163;-84
2023/09/24 12:23:48;;;;;;;2.50;0.90;;;;;;;19.23;72.80;101590.98;105755;1259;97983;-85
2023/09/24 12:26:34;;;;;;;1.70;0.90;;;;;;;19.14;72.53;101590.77;106053;1259;103579;-86
2023/09/24 12:29:20;;;;;;;3.10;1.30;;;;;;;19.14;72.92;101590.30;106800;1264;99168;-86
2023/09/24 12:32:05;;;;;;;1.70;0.80;;;;;;;19.22;72.97;101588.27;106023;1259;98004;-86
2023/09/24 12:34:51;;;;;;;1.70;0.70;;;;;;;19.29;72.95;101590.02;105860;1259;98018;-84
2023/09/24 12:37:39;;;;;;;0.60;0.50;;;;;;;19.33;72.62;101588.00;106077;1259;98055;-86
2023/09/24 12:40:25;;;;;;;1.60;0.60;;;;;;;19.33;72.23;101583.16;105662;1263;101358;-83
2023/09/24 12:43:11;;;;;;;2.70;0.50;;;;;;;19.34;72.32;101584.42;106344;1259;100472;-85
2023/09/24 12:45:57;;;;;;;0.70;0.60;;;;;;;19.34;72.24;101585.30;105640;1259;98584;-84
2023/09/24 12:48:43;;;;;;;2.30;0.90;;;;;;;19.37;71.92;101588.71;105674;1264;99138;-83
2023/09/24 12:51:29;;;;;;;1.20;0.80;;;;;;;19.37;71.73;101589.48;105829;1262;97993;-85